Terminal Aerodrome Forecast
Issued by NWS Sioux Falls, SD

Home | Current Version | Previous Version | Text Only | Print | Product List | Glossary On
Versions: 1 2 3 4 5 6 7 8 9 10 11 12 13
000
FTUS43 KFSD 062323
TAFFSD
TAF
KFSD 062323Z 0700/0724 25006KT P6SM SCT100
     FM070700 31009KT P6SM BKN100
     FM071600 32010KT P6SM BKN030=

USA.gov is the U.S. government's official web portal to all federal, state and local government web resources and services.